Nearby METAR Reports

 

EGMC - Southend-On-Sea, United Kingdom
Distance from station: NE 10km
Updated: 15/10/2018 19:50
Mist, Overcast
Mist, Overcast
 Wind from varies
Wind: varies 3 mph , 6 km/h
Temperature: 15°C
Dew Point: 14°C
Humidity: 94%
Barometer: 1013 hPa
Summary: Mist
Clouds: Overcast
Visibility: 2 miles , 3 km
Cloud details: Overcast 122 m
2018/10/15 18:50 EGMC 151850Z VRB03KT 3000 BR OVC004 15/14 Q1013
EGLC - London City Airp, United Kingdom
Distance from station: W 37km
Updated: 15/10/2018 19:50
Mist, Overcast
Mist, Overcast
 Wind from varies
Wind: varies 3 mph , 6 km/h
Temperature: 15°C
Dew Point: 14°C
Humidity: 94%
Barometer: 1014 hPa
Summary: Mist
Clouds: Overcast
Visibility: 1 mile , 1 km
Cloud details: Overcast 61 m
2018/10/15 18:50 EGLC 151850Z AUTO VRB03KT 1100 R09/P1500 BR OVC002 15/14 Q1014
EGKB - Biggin Hill, United Kingdom
Distance from station: WSW 45km
Updated: 15/10/2018 19:50
Fog
Fog
 Wind from NE
Wind: NE 5 mph , 7 km/h
Temperature: 14°C
Dew Point: 14°C
Humidity: 100%
Barometer: 1014 hPa
Summary: Fog
Visibility: 0 mile , 0 km
2018/10/15 18:50 EGKB 151850Z 04004KT 0300 R21/0550 FG VV/// 14/14 Q1014
 
EGSS - Stansted Airport, United Kingdom
Distance from station: NNW 48km
Updated: 15/10/2018 19:50
Mist, Overcast
Mist, Overcast
 Wind from NNE
Wind: NNE 5 mph , 7 km/h
Temperature: 13°C
Dew Point: 12°C
Humidity: 94%
Barometer: 1014 hPa
Summary: Mist
Clouds: Overcast
Visibility: 1 mile , 2 km
Cloud details: Overcast 61 m
2018/10/15 18:50 EGSS 151850Z AUTO 02004KT 1600 BR OVC002 13/12 Q1014
EGKK - London/Gatwick A, United Kingdom
Distance from station: SW 67km
Updated: 15/10/2018 19:50
Mist, Mostly cloudy
Mist, Mostly cloudy
 Wind from varies
Wind: varies 5 mph , 7 km/h
Temperature: 15°C
Dew Point: 15°C
Humidity: 100%
Barometer: 1013 hPa
Summary: Mist
Clouds: Mostly cloudy
Visibility: 3 miles , 5 km
Cloud details: Mostly cloudy 152 m
2018/10/15 18:50 EGKK 151850Z VRB04KT 4500 BR BKN005 15/15 Q1013
EGMD - Lydd Airport, United Kingdom
Distance from station: SSE 67km
Updated: 15/10/2018 19:50
Clear
Clear
 Wind from E
Wind: E 8 mph , 13 km/h
Temperature: 15°C
Dew Point: 15°C
Humidity: 100%
Barometer: 1013 hPa
Clouds: Clear
Visibility: 6 miles , 10 km
2018/10/15 18:50 EGMD 151850Z AUTO 09007KT 9999 NCD 15/15 Q1013
 
EGWU - Northolt Raf, United Kingdom
Distance from station: W 69km
Updated: 15/10/2018 18:50
Mist, Mostly cloudy
Mist, Mostly cloudy
 Wind from NE
Wind: NE 6 mph , 9 km/h
Temperature: 13°C
Dew Point: 13°C
Humidity: 100%
Barometer: 1013 hPa
Summary: Mist
Clouds: Mostly cloudy
Visibility: 4 miles , 7 km
Cloud details: Partly cloudy 122 m
Mostly cloudy 183 m
2018/10/15 17:50 EGWU 151750Z 04005KT 7000 BR SCT004 BKN006 13/13 Q1013 YLO2 TEMPO 3000 -DZ YLO2
EGLL - London/Heathrow, United Kingdom
Distance from station: W 72km
Updated: 15/10/2018 19:50
Overcast
Overcast
 Wind from NE
Wind: NE 6 mph , 9 km/h
Temperature: 13°C
Dew Point: 13°C
Humidity: 100%
Barometer: 1014 hPa
Clouds: Overcast
Visibility: 4 miles , 6 km
Cloud details: Overcast 122 m
2018/10/15 18:50 EGLL 151850Z AUTO 04005KT 6000 OVC004 13/13 Q1014
EGUW - Wattisham Raf, United Kingdom
Distance from station: NNE 72km
Updated: 15/10/2018 19:50
Light drizzle, Overcast
Light drizzle, Overcast
 Wind from NNE
Wind: NNE 6 mph , 9 km/h
Temperature: 13°C
Dew Point: 13°C
Humidity: 100%
Barometer: 1014 hPa
Summary: Light Drizzle
Clouds: Overcast
Visibility: 2 miles , 3 km
Cloud details: Overcast 61 m
2018/10/15 18:50 EGUW 151850Z 03005KT 2500 -DZ OVC002 13/13 Q1014 AMB
 
EGGW - Luton Airport, United Kingdom
Distance from station: WNW 76km
Updated: 15/10/2018 19:50
Mist, Overcast
Mist, Overcast
 Wind from NNE
Wind: NNE 7 mph , 11 km/h
Temperature: 11°C
Dew Point: 11°C
Humidity: 100%
Barometer: 1014 hPa
Summary: Mist
Clouds: Overcast
Visibility: 2 miles , 3 km
Cloud details: Overcast 61 m
2018/10/15 18:50 EGGW 151850Z AUTO 03006KT 010V080 3300 BR OVC002 11/11 Q1014
EGSC - Cambridge, United Kingdom
Distance from station: NNW 81km
Updated: 15/10/2018 19:20
Mist, Mostly cloudy
Mist, Mostly cloudy
 Wind from NNE
Wind: NNE 6 mph , 9 km/h
Temperature: 12°C
Dew Point: 11°C
Humidity: 94%
Barometer: 1014 hPa
Summary: Mist
Clouds: Mostly cloudy
Visibility: 3 miles , 4 km
Cloud details: Mostly cloudy 91 m
2018/10/15 18:20 EGSC 151820Z 03005KT 4200 BR BKN003 12/11 Q1014